createdAt,value
2022-09-13T00:00:41.717Z,100788.06
2022-09-13T00:03:10.127Z,100789.16
2022-09-13T00:05:38.289Z,100779.28
2022-09-13T00:08:06.068Z,100778.44
2022-09-13T00:10:35.476Z,100772.13
2022-09-13T00:13:02.237Z,100773.50
2022-09-13T00:15:28.843Z,100774.88
2022-09-13T00:17:56.018Z,100772.38
2022-09-13T00:20:22.719Z,100774.03
2022-09-13T00:22:49.192Z,100764.97
2022-09-13T00:25:15.701Z,100761.38
2022-09-13T00:27:42.222Z,100764.97
2022-09-13T00:30:09.484Z,100752.88
2022-09-13T00:32:36.182Z,100732.78
2022-09-13T00:35:04.698Z,100743.22
2022-09-13T00:37:33.289Z,100737.97
2022-09-13T00:40:00.657Z,100726.44
2022-09-13T00:42:29.094Z,100725.09
2022-09-13T00:45:02.804Z,100724.22
2022-09-13T00:47:39.852Z,100738.53
2022-09-13T00:50:14.569Z,100744.59
2022-09-13T00:52:46.691Z,100753.06
2022-09-13T00:55:31.192Z,100756.91
2022-09-13T00:58:05.059Z,100750.56
2022-09-13T01:00:31.874Z,100749.19
2022-09-13T01:03:02.251Z,100755.53
2022-09-13T01:05:36.114Z,100753.03
2022-09-13T01:08:03.971Z,100750.81
2022-09-13T01:10:31.813Z,100748.34
2022-09-13T01:13:15.066Z,100738.19
2022-09-13T01:15:41.725Z,100735.16
2022-09-13T01:18:09.569Z,100723.91
2022-09-13T01:21:21.206Z,100714.31
2022-09-13T01:24:12.473Z,100714.84
2022-09-13T01:26:57.113Z,100701.09
2022-09-13T01:29:26.503Z,100708.25
2022-09-13T01:31:58.764Z,100691.19
2022-09-13T01:34:28.280Z,100673.09
2022-09-13T01:37:00.240Z,100669.22
2022-09-13T01:39:50.562Z,100670.88
2022-09-13T01:42:27.088Z,100659.88
2022-09-13T01:45:09.382Z,100665.38
2022-09-13T01:47:52.353Z,100656.59
2022-09-13T01:50:24.705Z,100648.91
2022-09-13T01:52:57.175Z,100642.03
2022-09-13T01:55:27.325Z,100640.38
2022-09-13T01:58:06.809Z,100649.19
2022-09-13T02:00:41.374Z,100641.75
2022-09-13T02:03:14.753Z,100641.75
2022-09-13T02:05:47.798Z,100649.47
2022-09-13T02:08:21.761Z,100647.25
2022-09-13T02:10:54.063Z,100645.88
2022-09-13T02:13:25.804Z,100642.59
2022-09-13T02:16:00.791Z,100647.25
2022-09-13T02:18:36.466Z,100653.31
2022-09-13T02:21:12.662Z,100643.69
2022-09-13T02:23:47.260Z,100653.59
2022-09-13T02:26:15.491Z,100653.88
2022-09-13T02:28:48.600Z,100649.47
2022-09-13T02:31:19.810Z,100654.13
2022-09-13T02:33:54.536Z,100652.50
2022-09-13T02:36:28.289Z,100651.38
2022-09-13T02:39:02.508Z,100643.97
2022-09-13T02:41:39.506Z,100637.63
2022-09-13T02:44:19.814Z,100631.88
2022-09-13T02:47:14.220Z,100629.38
2022-09-13T02:49:52.800Z,100631.31
2022-09-13T02:52:37.378Z,100627.47
2022-09-13T02:55:18.931Z,100625.25
2022-09-13T02:57:48.646Z,100626.63
2022-09-13T03:00:15.280Z,100621.16
2022-09-13T03:02:44.124Z,100619.25
2022-09-13T03:05:11.008Z,100606.88
2022-09-13T03:07:37.515Z,100611.81
2022-09-13T03:10:15.187Z,100609.34
2022-09-13T03:13:00.404Z,100600.00
2022-09-13T03:16:06.605Z,100592.03
2022-09-13T03:19:03.588Z,100586.28
2022-09-13T03:21:58.043Z,100592.84
2022-09-13T03:24:54.929Z,100586.56
2022-09-13T03:27:49.675Z,100584.63
2022-09-13T03:30:18.154Z,100582.97
2022-09-13T03:33:00.394Z,100581.31
2022-09-13T03:35:36.418Z,100573.63
2022-09-13T03:38:14.685Z,100569.22
2022-09-13T03:41:00.105Z,100563.72
2022-09-13T03:43:41.680Z,100562.06
2022-09-13T03:46:35.121Z,100565.66
2022-09-13T03:49:06.705Z,100586.28
2022-09-13T03:51:33.985Z,100584.63
2022-09-13T03:54:04.852Z,100582.13
2022-09-13T03:56:31.530Z,100585.16
2022-09-13T03:58:58.496Z,100590.38
2022-09-13T04:01:25.722Z,100590.09
2022-09-13T04:03:56.346Z,100589.00
2022-09-13T04:06:23.233Z,100592.56
2022-09-13T04:08:49.889Z,100587.03
2022-09-13T04:11:16.533Z,100591.75
2022-09-13T04:13:43.054Z,100586.75
2022-09-13T04:16:09.578Z,100595.56
2022-09-13T04:18:36.256Z,100594.78
2022-09-13T04:21:04.626Z,100597.25
2022-09-13T04:23:31.473Z,100583.47
2022-09-13T04:26:05.181Z,100589.28
2022-09-13T04:28:31.764Z,100592.81
2022-09-13T04:30:58.294Z,100587.88
2022-09-13T04:33:25.166Z,100588.44
2022-09-13T04:35:58.442Z,100584.59
2022-09-13T04:38:24.965Z,100591.75
2022-09-13T04:40:56.070Z,100593.13
2022-09-13T04:43:23.652Z,100594.78
2022-09-13T04:45:50.812Z,100592.56
2022-09-13T04:48:17.418Z,100589.50
2022-09-13T04:50:44.896Z,100593.94
2022-09-13T04:53:11.854Z,100596.94
2022-09-13T04:55:38.989Z,100593.94
2022-09-13T04:58:05.574Z,100599.44
2022-09-13T05:00:33.631Z,100598.06
2022-09-13T05:03:00.451Z,100603.81
2022-09-13T05:05:28.848Z,100608.22
2022-09-13T05:07:55.644Z,100603.28
2022-09-13T05:10:22.180Z,100604.09
2022-09-13T05:12:49.093Z,100605.50
2022-09-13T05:15:15.720Z,100611.50
2022-09-13T05:17:42.230Z,100625.25
2022-09-13T05:20:09.479Z,100616.78
2022-09-13T05:22:35.984Z,100623.34
2022-09-13T05:25:02.472Z,100617.56
2022-09-13T05:27:28.998Z,100610.69
2022-09-13T05:29:55.488Z,100600.50
2022-09-13T05:32:22.018Z,100614.81
2022-09-13T05:34:48.504Z,100608.50
2022-09-13T05:37:15.031Z,100599.41
2022-09-13T05:40:07.348Z,100599.44
2022-09-13T05:42:28.046Z,100605.50
2022-09-13T05:44:54.584Z,100608.22
2022-09-13T05:47:21.317Z,100613.75
2022-09-13T05:50:08.984Z,100608.53
2022-09-13T05:52:34.303Z,100615.91
2022-09-13T05:55:00.795Z,100610.69
2022-09-13T05:57:27.294Z,100608.72
2022-09-13T05:59:53.796Z,100616.47
2022-09-13T06:02:20.352Z,100625.00
2022-09-13T06:04:47.040Z,100620.84
2022-09-13T06:07:13.565Z,100615.88
2022-09-13T06:09:40.035Z,100614.78
2022-09-13T06:12:06.855Z,100612.03
2022-09-13T06:14:33.378Z,100607.91
2022-09-13T06:16:59.857Z,100609.56
2022-09-13T06:19:26.359Z,100610.06
2022-09-13T06:21:52.860Z,100624.38
2022-09-13T06:24:19.357Z,100625.75
2022-09-13T06:26:45.839Z,100624.09
2022-09-13T06:29:12.984Z,100619.69
2022-09-13T06:31:43.753Z,100614.16
2022-09-13T06:34:12.552Z,100614.16
2022-09-13T06:36:39.087Z,100614.44
2022-09-13T06:39:06.618Z,100619.69
2022-09-13T06:41:33.601Z,100623.75
2022-09-13T06:44:02.082Z,100617.63
2022-09-13T06:46:30.631Z,100627.78
2022-09-13T06:49:04.736Z,100629.34
2022-09-13T06:51:32.612Z,100635.06
2022-09-13T06:54:00.106Z,100631.22
2022-09-13T06:56:29.875Z,100621.63
2022-09-13T06:58:58.742Z,100618.59
2022-09-13T07:01:34.311Z,100622.38
2022-09-13T07:04:04.209Z,100628.69
2022-09-13T07:06:36.695Z,100631.97
2022-09-13T07:09:05.924Z,100635.81
2022-09-13T07:11:36.305Z,100641.31
2022-09-13T07:14:03.994Z,100636.84
2022-09-13T07:16:32.483Z,100645.66
2022-09-13T07:19:01.498Z,100645.59
2022-09-13T07:21:29.371Z,100637.31
2022-09-13T07:23:57.221Z,100648.31
2022-09-13T07:26:24.975Z,100652.44
2022-09-13T07:28:55.368Z,100647.81
2022-09-13T07:31:28.947Z,100654.38
2022-09-13T07:33:58.559Z,100660.44
2022-09-13T07:36:26.717Z,100653.00
2022-09-13T07:38:53.270Z,100657.69
2022-09-13T07:41:22.116Z,100658.41
2022-09-13T07:43:49.500Z,100669.78
2022-09-13T07:46:21.888Z,100658.72
2022-09-13T07:48:50.093Z,100660.84
2022-09-13T07:51:20.798Z,100668.13
2022-09-13T07:53:50.709Z,100673.69
2022-09-13T07:56:23.468Z,100674.03
2022-09-13T07:58:51.479Z,100675.09
2022-09-13T08:01:26.494Z,100672.34
2022-09-13T08:03:58.427Z,100678.41
2022-09-13T08:06:26.833Z,100690.16
2022-09-13T08:08:54.072Z,100680.09
2022-09-13T08:11:26.061Z,100679.22
2022-09-13T08:13:53.359Z,100682.25
2022-09-13T08:16:21.664Z,100695.41
2022-09-13T08:18:51.001Z,100694.81
2022-09-13T08:21:18.040Z,100699.53
2022-09-13T08:23:45.152Z,100700.41
2022-09-13T08:26:11.896Z,100696.63
2022-09-13T08:28:43.010Z,100686.41
2022-09-13T08:31:12.267Z,100683.78
2022-09-13T08:33:41.966Z,100690.97
2022-09-13T08:36:10.833Z,100689.56
2022-09-13T08:38:37.699Z,100687.41
2022-09-13T08:41:25.892Z,100686.31
2022-09-13T08:44:23.882Z,100685.41
2022-09-13T08:46:51.261Z,100683.53
2022-09-13T08:49:32.309Z,100667.59
2022-09-13T08:52:29.933Z,100688.06
2022-09-13T08:54:58.570Z,100684.38
2022-09-13T08:58:09.930Z,100687.66
2022-09-13T09:00:41.233Z,100686.88
2022-09-13T09:03:26.776Z,100699.78
2022-09-13T09:05:54.528Z,100702.25
2022-09-13T09:08:31.345Z,100705.13
2022-09-13T09:11:03.234Z,100696.00
2022-09-13T09:13:48.230Z,100691.25
2022-09-13T09:16:39.669Z,100697.03
2022-09-13T09:19:22.876Z,100714.25
2022-09-13T09:21:51.741Z,100698.09
2022-09-13T09:24:23.390Z,100702.25
2022-09-13T09:26:50.392Z,100706.22
2022-09-13T09:29:26.171Z,100706.78
2022-09-13T09:32:20.529Z,100702.63
2022-09-13T09:35:07.596Z,100705.44
2022-09-13T09:37:37.083Z,100705.03
2022-09-13T09:40:11.281Z,100707.75
2022-09-13T09:42:49.409Z,100708.94
2022-09-13T09:45:32.244Z,100705.63
2022-09-13T09:48:04.653Z,100717.00
2022-09-13T09:50:36.483Z,100712.22
2022-09-13T09:53:14.771Z,100705.47
2022-09-13T09:55:53.403Z,100716.81
2022-09-13T09:58:37.453Z,100707.63
2022-09-13T10:01:09.549Z,100712.94
2022-09-13T10:03:40.019Z,100711.66
2022-09-13T10:06:14.487Z,100698.41
2022-09-13T10:08:44.097Z,100708.88
2022-09-13T10:11:10.903Z,100702.56
2022-09-13T10:13:38.840Z,100711.06
2022-09-13T10:16:21.611Z,100695.75
2022-09-13T10:18:48.511Z,100693.97
2022-09-13T10:21:18.034Z,100689.06
2022-09-13T10:23:47.149Z,100681.53
2022-09-13T10:26:18.031Z,100690.03
2022-09-13T10:28:59.854Z,100686.84
2022-09-13T10:31:34.445Z,100696.03
2022-09-13T10:34:04.610Z,100695.75
2022-09-13T10:36:52.612Z,100699.31
2022-09-13T10:39:22.423Z,100698.75
2022-09-13T10:41:53.745Z,100699.91
2022-09-13T10:44:31.864Z,100702.84
2022-09-13T10:47:02.014Z,100705.63
2022-09-13T10:49:36.290Z,100700.84
2022-09-13T10:52:33.429Z,100689.03
2022-09-13T10:55:21.284Z,100689.72
2022-09-13T10:57:50.063Z,100688.13
2022-09-13T11:00:22.898Z,100695.81
2022-09-13T11:03:05.856Z,100695.94
2022-09-13T11:05:54.318Z,100695.88
2022-09-13T11:08:36.348Z,100692.00
2022-09-13T11:11:30.836Z,100689.34
2022-09-13T11:14:21.852Z,100688.91
2022-09-13T11:17:07.186Z,100692.94
2022-09-13T11:19:43.666Z,100690.19
2022-09-13T11:22:33.419Z,100683.03
2022-09-13T11:25:05.340Z,100687.78
2022-09-13T11:28:03.435Z,100692.28
2022-09-13T11:30:35.852Z,100684.06
2022-09-13T11:33:27.019Z,100683.63
2022-09-13T11:36:15.293Z,100685.50
2022-09-13T11:38:56.894Z,100685.81
2022-09-13T11:41:46.602Z,100675.69
2022-09-13T11:44:37.221Z,100692.09
2022-09-13T11:47:15.325Z,100683.03
2022-09-13T11:50:03.137Z,100680.41
2022-09-13T11:52:39.099Z,100687.31
2022-09-13T11:55:16.870Z,100683.22
2022-09-13T11:57:53.185Z,100677.09
2022-09-13T12:00:27.903Z,100683.88
2022-09-13T12:03:26.334Z,100679.09
2022-09-13T12:06:01.481Z,100676.44
2022-09-13T12:08:42.557Z,100676.22
2022-09-13T12:11:16.082Z,100671.03
2022-09-13T12:14:00.811Z,100665.13
2022-09-13T12:16:39.363Z,100667.28
2022-09-13T12:19:15.759Z,100674.88
2022-09-13T12:21:44.430Z,100672.81
2022-09-13T12:24:21.735Z,100683.88
2022-09-13T12:26:57.132Z,100685.03
2022-09-13T12:29:54.199Z,100681.13
2022-09-13T12:32:23.712Z,100686.56
2022-09-13T12:34:57.659Z,100682.03
2022-09-13T12:38:02.008Z,100689.69
2022-09-13T12:40:54.843Z,100682.28
2022-09-13T12:43:55.319Z,100682.81
2022-09-13T12:46:27.960Z,100676.53
2022-09-13T12:49:03.549Z,100673.22
2022-09-13T12:51:54.317Z,100674.50
2022-09-13T12:54:39.563Z,100675.97
2022-09-13T12:57:28.243Z,100672.59
2022-09-13T13:00:20.998Z,100677.16
2022-09-13T13:03:11.899Z,100671.50
2022-09-13T13:05:45.895Z,100669.59
2022-09-13T13:08:21.530Z,100687.22
2022-09-13T13:11:06.709Z,100688.94
2022-09-13T13:13:43.155Z,100690.44
2022-09-13T13:16:23.632Z,100702.19
2022-09-13T13:18:58.336Z,100702.47
2022-09-13T13:21:39.116Z,100700.25
2022-09-13T13:24:18.768Z,100697.56
2022-09-13T13:26:56.566Z,100701.97
2022-09-13T13:29:30.147Z,100709.00
2022-09-13T13:32:08.399Z,100704.41
2022-09-13T13:34:50.229Z,100700.25
2022-09-13T13:37:19.431Z,100707.13
2022-09-13T13:39:47.403Z,100707.19
2022-09-13T13:42:27.943Z,100701.88
2022-09-13T13:44:54.418Z,100709.16
2022-09-13T13:47:20.849Z,100698.94
2022-09-13T13:49:52.693Z,100703.63
2022-09-13T13:52:22.477Z,100705.00
2022-09-13T13:54:55.729Z,100697.69
2022-09-13T13:57:38.891Z,100695.38
2022-09-13T14:00:15.741Z,100699.63
2022-09-13T14:02:53.511Z,100693.41
2022-09-13T14:05:41.793Z,100687.06
2022-09-13T14:08:32.741Z,100692.59
2022-09-13T14:11:11.129Z,100696.69
2022-09-13T14:14:03.315Z,100696.25
2022-09-13T14:17:14.145Z,100699.28
2022-09-13T14:19:50.182Z,100694.97
2022-09-13T14:22:19.135Z,100698.25
2022-09-13T14:24:51.256Z,100700.25
2022-09-13T14:27:20.197Z,100694.97
2022-09-13T14:29:49.388Z,100692.28
2022-09-13T14:32:23.814Z,100692.19
2022-09-13T14:34:59.630Z,100690.69
2022-09-13T14:37:32.792Z,100693.19
2022-09-13T14:40:08.357Z,100687.50
2022-09-13T14:42:43.671Z,100695.84
2022-09-13T14:45:16.700Z,100682.09
2022-09-13T14:47:47.619Z,100682.88
2022-09-13T14:50:22.733Z,100708.72
2022-09-13T14:52:53.726Z,100705.44
2022-09-13T14:55:28.706Z,100696.94
2022-09-13T14:58:04.209Z,100686.69
2022-09-13T15:00:44.012Z,100686.38
2022-09-13T15:03:16.615Z,100688.66
2022-09-13T15:05:51.979Z,100699.59
2022-09-13T15:08:33.513Z,100707.53
2022-09-13T15:11:12.725Z,100702.25
2022-09-13T15:13:42.830Z,100693.97
2022-09-13T15:16:29.681Z,100693.38
2022-09-13T15:19:26.924Z,100705.16
2022-09-13T15:22:03.140Z,100694.97
2022-09-13T15:24:33.280Z,100692.84
2022-09-13T15:27:07.496Z,100700.44
2022-09-13T15:29:37.485Z,100696.63
2022-09-13T15:32:06.623Z,100706.06
2022-09-13T15:34:46.624Z,100704.66
2022-09-13T15:37:18.770Z,100700.56
2022-09-13T15:39:52.870Z,100700.75
2022-09-13T15:42:19.582Z,100704.91
2022-09-13T15:44:46.886Z,100703.56
2022-09-13T15:47:18.290Z,100702.50
2022-09-13T15:49:50.999Z,100692.88
2022-09-13T15:52:22.618Z,100710.19
2022-09-13T15:54:50.635Z,100700.88
2022-09-13T15:57:22.551Z,100702.72
2022-09-13T15:59:49.443Z,100695.88
2022-09-13T16:02:23.172Z,100688.81
2022-09-13T16:04:50.297Z,100689.94
2022-09-13T16:07:17.871Z,100696.84
2022-09-13T16:09:45.495Z,100688.84
2022-09-13T16:12:12.048Z,100695.72
2022-09-13T16:14:39.277Z,100692.47
2022-09-13T16:17:23.811Z,100697.47
2022-09-13T16:19:51.278Z,100706.81
2022-09-13T16:22:18.071Z,100704.97
2022-09-13T16:24:44.606Z,100702.22
2022-09-13T16:27:16.703Z,100703.81
2022-09-13T16:29:44.599Z,100701.63
2022-09-13T16:32:11.989Z,100704.41
2022-09-13T16:34:38.559Z,100702.78
2022-09-13T16:37:06.020Z,100694.22
2022-09-13T16:39:32.829Z,100700.88
2022-09-13T16:42:00.860Z,100699.28
2022-09-13T16:44:27.645Z,100692.16
2022-09-13T16:46:54.181Z,100686.09
2022-09-13T16:49:20.788Z,100689.44
2022-09-13T16:51:47.293Z,100685.59
2022-09-13T16:54:13.964Z,100688.06
2022-09-13T16:56:40.468Z,100692.19
2022-09-13T16:59:06.999Z,100687.47
2022-09-13T17:01:33.592Z,100693.03
2022-09-13T17:04:00.513Z,100685.06
2022-09-13T17:06:27.852Z,100688.91
2022-09-13T17:08:57.073Z,100691.66
2022-09-13T17:11:27.162Z,100685.66
2022-09-13T17:13:56.370Z,100684.81
2022-09-13T17:16:28.752Z,100677.44
2022-09-13T17:18:58.215Z,100676.06
2022-09-13T17:21:25.840Z,100669.19
2022-09-13T17:23:53.099Z,100667.56
2022-09-13T17:26:20.100Z,100674.41
2022-09-13T17:28:46.672Z,100678.53
2022-09-13T17:31:13.307Z,100681.84
2022-09-13T17:33:39.873Z,100685.16
2022-09-13T17:36:08.708Z,100675.81
2022-09-13T17:38:36.499Z,100679.66
2022-09-13T17:41:04.400Z,100669.50
2022-09-13T17:43:31.070Z,100676.66
2022-09-13T17:45:57.864Z,100670.88
2022-09-13T17:48:24.414Z,100682.16
2022-09-13T17:50:50.963Z,100681.59
2022-09-13T17:53:17.471Z,100683.53
2022-09-13T17:55:49.049Z,100678.03
2022-09-13T17:58:16.156Z,100687.38
2022-09-13T18:00:42.764Z,100685.19
2022-09-13T18:03:09.587Z,100688.47
2022-09-13T18:05:36.486Z,100682.97
2022-09-13T18:08:03.281Z,100686.25
2022-09-13T18:10:58.069Z,100697.84
2022-09-13T18:13:18.437Z,100691.50
2022-09-13T18:15:48.370Z,100689.56
2022-09-13T18:18:16.497Z,100686.81
2022-09-13T18:20:47.343Z,100683.50
2022-09-13T18:23:14.120Z,100692.34
2022-09-13T18:25:40.859Z,100697.25
2022-09-13T18:28:07.418Z,100694.53
2022-09-13T18:30:34.031Z,100690.13
2022-09-13T18:33:00.825Z,100692.34
2022-09-13T18:35:28.988Z,100690.16
2022-09-13T18:37:55.750Z,100694.56
2022-09-13T18:40:26.008Z,100695.09
2022-09-13T18:42:52.633Z,100694.25
2022-09-13T18:45:24.080Z,100691.81
2022-09-13T18:47:50.587Z,100695.63
2022-09-13T18:50:20.089Z,100691.22
2022-09-13T18:52:46.965Z,100694.84
2022-09-13T18:55:14.403Z,100694.84
2022-09-13T18:57:41.177Z,100695.09
2022-09-13T19:00:09.915Z,100691.81
2022-09-13T19:02:51.975Z,100687.41
2022-09-13T19:05:29.443Z,100692.91
2022-09-13T19:07:58.001Z,100693.19
2022-09-13T19:10:26.069Z,100691.25
2022-09-13T19:12:57.156Z,100698.97
2022-09-13T19:15:27.478Z,100695.38
2022-09-13T19:17:57.798Z,100693.47
2022-09-13T19:20:30.498Z,100702.50
2022-09-13T19:22:58.967Z,100695.63
2022-09-13T19:25:30.468Z,100693.44
2022-09-13T19:27:57.884Z,100700.03
2022-09-13T19:30:25.224Z,100701.13
2022-09-13T19:32:55.774Z,100699.75
2022-09-13T19:35:24.036Z,100692.88
2022-09-13T19:37:50.803Z,100692.88
2022-09-13T19:40:20.107Z,100700.31
2022-09-13T19:42:47.047Z,100698.97
2022-09-13T19:45:14.003Z,100693.47
2022-09-13T19:48:25.759Z,100687.69
2022-09-13T19:50:27.675Z,100684.63
2022-09-13T19:52:54.430Z,100681.38
2022-09-13T19:55:21.010Z,100684.13
2022-09-13T19:57:47.516Z,100679.44
2022-09-13T20:00:14.621Z,100678.34
2022-09-13T20:02:41.178Z,100672.84
2022-09-13T20:05:08.108Z,100675.59
2022-09-13T20:07:35.945Z,100673.13
2022-09-13T20:10:02.485Z,100675.59
2022-09-13T20:12:28.952Z,100680.81
2022-09-13T20:14:55.673Z,100678.63
2022-09-13T20:17:22.176Z,100666.50
2022-09-13T20:19:50.326Z,100666.25
2022-09-13T20:22:17.073Z,100672.53
2022-09-13T20:24:43.629Z,100670.88
2022-09-13T20:27:10.445Z,100673.63
2022-09-13T20:29:37.098Z,100659.91
2022-09-13T20:32:04.074Z,100671.97
2022-09-13T20:34:35.213Z,100666.25
2022-09-13T20:37:01.857Z,100660.75
2022-09-13T20:39:30.167Z,100659.06
2022-09-13T20:41:56.691Z,100648.34
2022-09-13T20:44:23.696Z,100652.13
2022-09-13T20:46:50.198Z,100643.06
2022-09-13T20:49:17.150Z,100654.59
2022-09-13T20:51:46.792Z,100649.88
2022-09-13T20:54:13.595Z,100648.75
2022-09-13T20:56:40.444Z,100653.13
2022-09-13T20:59:07.025Z,100650.94
2022-09-13T21:01:34.388Z,100652.00
2022-09-13T21:04:01.442Z,100648.69
2022-09-13T21:06:30.454Z,100655.03
2022-09-13T21:09:00.177Z,100660.19
2022-09-13T21:11:34.231Z,100650.88
2022-09-13T21:14:06.213Z,100653.59
2022-09-13T21:16:39.358Z,100661.81
2022-09-13T21:19:07.108Z,100656.53
2022-09-13T21:21:36.293Z,100657.38
2022-09-13T21:24:04.958Z,100658.19
2022-09-13T21:26:32.508Z,100655.19
2022-09-13T21:29:00.623Z,100649.47
2022-09-13T21:31:32.460Z,100654.66
2022-09-13T21:34:05.064Z,100659.03
2022-09-13T21:36:34.698Z,100665.53
2022-09-13T21:39:02.449Z,100657.59
2022-09-13T21:41:30.478Z,100662.00
2022-09-13T21:43:57.184Z,100660.91
2022-09-13T21:46:29.127Z,100669.41
2022-09-13T21:48:58.541Z,100662.81
2022-09-13T21:51:30.938Z,100656.78
2022-09-13T21:53:59.452Z,100654.91
2022-09-13T21:56:28.490Z,100660.94
2022-09-13T21:59:01.057Z,100655.47
2022-09-13T22:01:36.324Z,100645.88
2022-09-13T22:04:03.020Z,100656.28
2022-09-13T22:06:35.287Z,100652.38
2022-09-13T22:09:05.492Z,100637.31
2022-09-13T22:11:37.120Z,100638.69
2022-09-13T22:14:03.887Z,100640.63
2022-09-13T22:16:35.352Z,100639.53
2022-09-13T22:19:11.484Z,100641.97
2022-09-13T22:21:41.148Z,100641.66
2022-09-13T22:24:09.236Z,100637.22
2022-09-13T22:26:40.962Z,100636.97
2022-09-13T22:29:09.780Z,100638.06
2022-09-13T22:31:41.411Z,100641.88
2022-09-13T22:34:14.322Z,100646.75
2022-09-13T22:36:43.520Z,100636.88
2022-09-13T22:39:12.980Z,100633.22
2022-09-13T22:41:39.958Z,100633.78
2022-09-13T22:44:06.655Z,100637.31
2022-09-13T22:46:36.128Z,100627.66
2022-09-13T22:49:04.161Z,100633.97
2022-09-13T22:51:31.437Z,100628.66
2022-09-13T22:53:58.124Z,100640.38
2022-09-13T22:56:28.503Z,100639.13
2022-09-13T22:58:57.681Z,100635.22
2022-09-13T23:01:25.176Z,100635.13
2022-09-13T23:03:53.109Z,100626.63
2022-09-13T23:06:21.464Z,100627.50
2022-09-13T23:08:49.744Z,100627.19
2022-09-13T23:11:21.292Z,100621.28
2022-09-13T23:13:49.759Z,100623.38
2022-09-13T23:16:17.561Z,100628.84
2022-09-13T23:18:44.208Z,100629.88
2022-09-13T23:21:13.345Z,100625.94
2022-09-13T23:23:40.148Z,100624.88
2022-09-13T23:26:10.039Z,100617.25
2022-09-13T23:28:38.083Z,100623.81
2022-09-13T23:31:15.784Z,100622.94
2022-09-13T23:33:48.464Z,100621.03
2022-09-13T23:36:20.927Z,100617.47
2022-09-13T23:38:50.831Z,100616.41
2022-09-13T23:41:19.066Z,100616.06
2022-09-13T23:43:46.311Z,100609.16
2022-09-13T23:46:13.092Z,100612.69
2022-09-13T23:48:42.899Z,100603.94
2022-09-13T23:51:13.002Z,100601.69
2022-09-13T23:53:39.982Z,100607.09
2022-09-13T23:56:08.529Z,100608.25
2022-09-13T23:58:36.993Z,100605.34
